Ludlow, Mississippi
Current Conditions -  °F | °C
As of 10:54 AM on Saturday 22 Nov 2014 (Local Time) from KJAN Reporting Station
Broken Clouds Broken Clouds  
Wind Chill: 66°   Ceiling: 11000
Heat Index: 66°   Visibility: 10mi
Dew Point: 46°   Wind: 16mph
Humidity: 48%   Direction: 140°SE
Pressure: 30.23"   Gusts: NA
Location:  32.57°N, 89.72°W
Report Text: KJAN 221654Z 14014KT 10SM BKN110 19/08 A3023 RMK AO2 SLP236 T01890078
Loading
Personal Weather Stations






























Interactive Weather Map New forecast layout! Learn more

10-Day Weather Forecast

Advertisements
Track Severe Weather on mobile